Share

Jaen, Spain

Ranal (IANDALUC34) Elev 2123 ft | 37.77 °N, 3.90 °W | Change Station

Current weather conditions updated 4 seconds ago

Clear
Clear
59.9 °F
Feels Like 59.9 °F
N
1.3
Wind Variable Wind from SSW
Gusts 3.8 mph
Sunrise 7:36 AM
Sunset 8:53 PM
Moon Waning Gibbous

Today is forecast to be nearly the same temperature as yesterday.

Pressure 30.04 in
Visibility -9999.0 miles
Clouds
Dew Point 52 °F
Humidity 75%
Rainfall 0.00 in
Snow Depth Not available.
UV 0.0 out of 16
Pollen Not available.
Air Quality Not available.
Flu Activity Not available.
METAR LEGR 180630Z 00000KT CAVOK 11/07 Q1017

More Conditions Fewer Conditions

Pressure 30.04 in
Visibility -9999.0 miles
Clouds
Dew Point 52 °F
Humidity 75%
Rainfall 0.00 in
Snow Depth Not available.
UV 0.0 out of 16
Pollen Not available.
Air Quality Not available.
Flu Activity Not available.
METAR LEGR 180630Z 00000KT CAVOK 11/07 Q1017

More Conditions Fewer Conditions

10-Day Forecast

Almanac

Astronomy

Apr. 18, 2014 Rise Set
Actual Time 7:36 AM CEST 8:53 PM CEST
Civil Twilight 7:08 AM CEST 9:20 PM CEST
Nautical Twilight 6:36 AM CEST 9:53 PM CEST
Astronomical Twilight 6:02 AM CEST 10:27 PM CEST
Moon No Moon Rise 9:48 AM CEST
Length of Visible Light 14h 11m
Length of Day
13h 17m
Tomorrow will be 2m 17s longer.
Waning Gibbous, 90% of the Moon is Illuminated
Today
Waning Gibbous
Apr 22
Last Quarter
Apr 29
New
May 6
First Quarter
May 14
Full

Yesterday's Extremes

Country Highs Country Lows

Community

  • SUNRISE THROUGH THE TREES.
    SUNRISE THROUGH THE TREES.
  • Dog Wood Blossoms
    Dog Wood Blossoms
  • Morning Light
    Morning Light
  • New Day
    New Day
  • Lake Michigan Sunrise
    Lake Michigan Sunrise

WunderPhotos

Upload Photos

1,702,276 photos uploaded!

WunderBlogs® & News

Nearby

Snow Depth

Not available.

Coastal Water Temperatures

Place Temperature
No Stations Reporting

Earthquake Activity

City Distance Mag. Time & Date
No recent earthquake activity has been reported nearby.
Minimum magnitude displayed is 2.5.

Nearby Weather Stations

Station Location Temp. Dew Point Humidity Wind Precip. Elev Updated Type
Ranal, Torredelcampo 59.9 °F 52 °F 75% SSW  at  1.3 mph 0.00 in / hr 2123 ft 8:37 AM CEST Rapid Fire
EL TUNEL, TORREDELCAMPO 63.9 °F 52 °F 64% North  at  0.0 mph 0.00 in / hr 1991 ft 8:32 AM CEST Normal
Los Villares, Los Villares 52.0 °F 48 °F 86% SSW  at  0.0 mph 0.00 in / hr 1923 ft 8:30 AM CEST Normal

Show More Stations Show Fewer Stations

What do you think?

We're not finished. Please let us know what you like, what you don't like, and what you are still missing.